Terminal Aerodrome Forecast
Issued by NWS

Home | Current Version | Previous Version | Text Only | Print | Product List | Glossary On
Versions: 1 2 3 4 5 6 7 8 9 10 11 12 13 14 15 16 17 18 19 20 21
000
FTUS43 KDLH 040542
TAFHYR
TAF
KHYR 040542Z 0406/0506 VRB03KT P6SM BKN060
      TEMPO 0409/0411 5SM BR
     FM041100 VRB03KT 5SM BR OVC025
     FM041400 33005KT P6SM BKN050
     FM050100 02003KT P6SM BKN040=

USA.gov is the U.S. government's official web portal to all federal, state and local government web resources and services.